Oscoda, Michigan
Current Conditions -  °F | °C
As of 1:13 PM on Saturday 25 Oct 2014 (Local Time) from KOSC Reporting Station
Scattered Clouds Scattered Clouds  
Wind Chill: 66°   Ceiling: Unl
Heat Index: 66°   Visibility: 10mi
Dew Point: 40°   Wind: 16mph
Humidity: 39%   Direction: 280°W
Pressure: 29.64"   Gusts: 28mph
Location:  44.42°N, 83.33°W
Report Text: KOSC 251713Z AUTO 28014G24KT 10SM SCT060 18/04 A2964 RMK AO2 T01890046
Loading
Personal Weather Stations






























Interactive Weather Map
Tropical Storm Tracking
New forecast layout! Learn more

10-Day Weather Forecast

Advertisements
Track Severe Weather on mobile